CST,Max TemperatureF,Mean TemperatureF,Min TemperatureF,Max Dew PointF,MeanDew PointF,Min DewpointF,Max Humidity, Mean Humidity, Min Humidity, Max Sea Level PressureIn, Mean Sea Level PressureIn, Min Sea Level PressureIn, Max VisibilityMiles, Mean VisibilityMiles, Min VisibilityMiles, Max Wind SpeedMPH, Mean Wind SpeedMPH, Max Gust SpeedMPH,PrecipitationIn, CloudCover, Events, WindDirDegrees
2012-11-1,71,50,30,39,34,27,87,58,28,30.05,29.99,29.91,10,9,0,10,2,16,0.00,0,,257
2012-11-2,64,52,41,39,34,30,76,52,30,30.06,29.99,29.93,10,10,10,12,6,16,0.00,0,,79
2012-11-3,55,47,37,39,35,32,81,59,47,30.22,30.07,29.90,10,10,8,13,6,21,0.00,0,,360
2012-11-4,55,42,28,36,31,25,93,66,41,30.27,30.20,30.11,10,8,0,8,2,,0.00,3,,87
2012-11-5,48,45,42,41,39,30,93,79,53,30.10,30.04,29.98,10,7,2,12,6,17,0.05,8,,116
2012-11-6,55,48,41,39,37,30,93,70,44,30.09,30.04,29.96,10,7,0,13,5,23,0.00,7,,279
2012-11-7,51,43,35,32,30,28,75,57,44,30.18,30.12,30.02,10,10,9,10,6,21,0.00,2,,358
2012-11-8,64,48,32,36,33,27,87,59,32,30.20,30.11,30.02,10,10,10,13,7,21,0.00,0,,161
2012-11-9,75,62,50,55,47,36,68,59,47,30.05,29.96,29.89,10,10,10,16,11,25,0.00,1,,181
2012-11-10,77,67,57,52,47,45,64,53,34,29.98,29.92,29.84,10,10,10,22,12,32,0.00,0,,181
2012-11-11,68,50,32,55,44,25,87,75,64,30.21,29.95,29.78,10,9,4,22,12,32,0.75,6,,245
2012-11-12,44,35,26,25,20,18,80,58,34,30.47,30.38,30.22,10,10,10,15,6,25,0.01,0,,276
2012-11-13,53,37,21,25,21,18,86,55,26,30.53,30.46,30.40,10,10,10,7,2,,0.00,0,,148
2012-11-14,55,42,30,27,22,16,65,45,24,30.47,30.40,30.33,10,10,10,10,5,,0.00,0,,143
2012-11-15,55,42,30,30,25,19,70,53,31,30.40,30.35,30.33,10,10,8,7,3,,0.00,1,,174
2012-11-16,60,44,28,34,29,25,93,62,31,30.47,30.43,30.40,10,10,10,7,1,,0.00,0,,153
2012-11-17,62,46,30,28,26,21,80,49,23,30.49,30.42,30.35,10,10,10,8,4,,0.00,0,,155
2012-11-18,64,50,37,32,26,21,65,41,20,30.38,30.32,30.25,10,10,6,12,6,,0.00,0,,160
2012-11-19,59,52,44,46,42,32,87,70,47,30.27,30.20,30.14,10,10,9,13,7,,0.09,4,,180
2012-11-20,62,50,39,45,41,36,93,74,45,30.26,30.17,30.12,10,8,3,10,4,16,0.00,0,,297
2012-11-21,69,50,30,46,34,28,93,62,28,30.29,30.21,30.12,10,7,1,9,3,,0.00,0,,164
2012-11-22,69,58,48,48,41,34,72,56,40,30.22,30.05,29.94,10,10,9,24,11,30,0.03,3,Thunderstorm,196
2012-11-23,50,39,28,34,21,12,75,49,36,30.43,30.36,30.23,10,10,10,15,8,24,0.00,1,,317
2012-11-24,44,32,21,19,15,12,80,49,31,30.41,30.24,30.00,10,10,10,10,4,,0.00,0,,198
2012-11-25,57,47,37,28,24,18,65,43,29,30.03,29.97,29.92,10,10,10,9,6,,0.00,0,,259
2012-11-26,44,36,26,28,24,19,75,61,39,30.43,30.21,30.03,10,10,10,18,9,25,0.00,3,,36
2012-11-27,42,30,17,19,16,12,86,62,31,30.49,30.40,30.32,10,10,10,7,3,,0.00,0,,234
2012-11-28,53,36,19,27,22,16,86,61,35,30.46,30.37,30.26,10,10,10,8,2,,0.00,0,,168
2012-11-29,64,50,35,37,30,25,70,50,27,30.26,30.16,30.08,10,10,10,17,9,23,0.00,0,,179
2012-11-30,66,52,39,46,38,28,72,57,46,30.14,30.10,30.07,10,10,10,12,6,,0.00,0,,188